createdAt,value
2022-12-08T00:01:25.115Z,10.85
2022-12-08T00:03:52.400Z,12.73
2022-12-08T00:07:01.129Z,10.48
2022-12-08T00:09:38.208Z,11.38
2022-12-08T00:12:09.152Z,10.20
2022-12-08T00:14:37.100Z,10.30
2022-12-08T00:17:05.396Z,10.00
2022-12-08T00:19:32.923Z,11.05
2022-12-08T00:22:00.226Z,10.88
2022-12-08T00:24:33.439Z,9.95
2022-12-08T00:27:00.362Z,13.55
2022-12-08T00:29:27.422Z,10.45
2022-12-08T00:31:54.613Z,11.85
2022-12-08T00:34:21.727Z,13.73
2022-12-08T00:36:48.842Z,11.68
2022-12-08T00:39:16.798Z,11.63
2022-12-08T00:42:02.536Z,12.60
2022-12-08T00:44:29.451Z,14.45
2022-12-08T00:46:56.834Z,16.25
2022-12-08T00:49:23.908Z,11.35
2022-12-08T00:51:50.844Z,10.60
2022-12-08T00:54:18.196Z,11.38
2022-12-08T00:56:45.048Z,13.00
2022-12-08T00:59:12.368Z,12.77
2022-12-08T01:01:39.296Z,12.55
2022-12-08T01:04:08.133Z,14.55
2022-12-08T01:06:36.040Z,11.43
2022-12-08T01:09:05.624Z,12.00
2022-12-08T01:11:33.388Z,13.73
2022-12-08T01:14:00.408Z,12.15
2022-12-08T01:16:29.699Z,16.85
2022-12-08T01:18:58.680Z,10.20
2022-12-08T01:21:26.243Z,9.82
2022-12-08T01:23:53.132Z,13.38
2022-12-08T01:26:20.404Z,11.02
2022-12-08T01:28:48.020Z,11.40
2022-12-08T01:31:18.050Z,16.58
2022-12-08T01:33:45.183Z,13.80
2022-12-08T01:36:24.011Z,14.13
2022-12-08T01:38:51.324Z,9.55
2022-12-08T01:41:21.131Z,8.80
2022-12-08T01:44:17.124Z,9.15
2022-12-08T01:46:48.925Z,11.13
2022-12-08T01:49:29.433Z,10.50
2022-12-08T01:52:28.999Z,11.68
2022-12-08T01:55:08.748Z,10.38
2022-12-08T01:57:41.588Z,11.88
2022-12-08T02:00:15.232Z,10.20
2022-12-08T02:02:58.495Z,10.70
2022-12-08T02:05:28.854Z,10.27
2022-12-08T02:07:57.370Z,10.65
2022-12-08T02:10:28.230Z,9.07
2022-12-08T02:12:57.556Z,11.52
2022-12-08T02:15:38.915Z,9.65
2022-12-08T02:18:27.612Z,9.20
2022-12-08T02:21:22.453Z,9.98
2022-12-08T02:24:17.347Z,12.30
2022-12-08T02:27:11.197Z,9.88
2022-12-08T02:29:46.993Z,10.43
2022-12-08T02:32:32.012Z,11.27
2022-12-08T02:35:04.725Z,9.80
2022-12-08T02:37:46.997Z,11.57
2022-12-08T02:40:20.104Z,11.90
2022-12-08T02:43:07.625Z,13.17
2022-12-08T02:45:41.354Z,10.70
2022-12-08T02:48:09.189Z,13.35
2022-12-08T02:50:36.045Z,12.45
2022-12-08T02:55:53.665Z,10.98
2022-12-08T02:58:29.177Z,9.80
2022-12-08T03:01:06.112Z,11.38
2022-12-08T03:04:02.261Z,10.93
2022-12-08T03:06:51.602Z,10.85
2022-12-08T03:09:39.912Z,11.38
2022-12-08T03:12:16.816Z,13.50
2022-12-08T03:14:48.329Z,11.23
2022-12-08T03:17:19.540Z,9.27
2022-12-08T03:19:48.090Z,12.13
2022-12-08T03:22:18.953Z,13.85
2022-12-08T03:24:47.081Z,12.93
2022-12-08T03:27:32.336Z,11.48
2022-12-08T03:30:01.622Z,11.60
2022-12-08T03:32:40.351Z,11.18
2022-12-08T03:35:12.092Z,12.82
2022-12-08T03:37:41.031Z,11.50
2022-12-08T03:40:11.013Z,11.40
2022-12-08T03:42:37.801Z,9.40
2022-12-08T03:45:05.702Z,10.55
2022-12-08T03:47:32.529Z,13.30
2022-12-08T03:49:59.393Z,12.50
2022-12-08T03:52:26.490Z,11.55
2022-12-08T03:54:53.558Z,10.90
2022-12-08T03:57:21.711Z,11.82
2022-12-08T03:59:48.593Z,12.85
2022-12-08T04:02:15.429Z,12.60
2022-12-08T04:04:43.189Z,12.73
2022-12-08T04:07:10.072Z,14.02
2022-12-08T04:09:36.953Z,11.13
2022-12-08T04:12:03.929Z,11.55
2022-12-08T04:14:30.788Z,11.30
2022-12-08T04:16:57.600Z,11.77
2022-12-08T04:19:24.676Z,11.10
2022-12-08T04:21:51.590Z,11.38
2022-12-08T04:24:18.398Z,12.77
2022-12-08T04:26:46.008Z,12.38
2022-12-08T04:29:12.905Z,13.18
2022-12-08T04:31:39.709Z,10.70
2022-12-08T04:34:06.633Z,11.02
2022-12-08T04:36:33.516Z,11.23
2022-12-08T04:39:00.456Z,14.50
2022-12-08T04:41:27.412Z,12.65
2022-12-08T04:43:54.253Z,10.93
2022-12-08T04:46:21.166Z,10.80
2022-12-08T04:48:48.016Z,11.35
2022-12-08T04:51:19.328Z,10.85
2022-12-08T04:53:47.083Z,12.38
2022-12-08T04:56:16.048Z,12.90
2022-12-08T04:58:43.469Z,12.80
2022-12-08T05:01:10.574Z,11.25
2022-12-08T05:03:37.630Z,10.48
2022-12-08T05:06:05.130Z,11.82
2022-12-08T05:08:32.930Z,10.32
2022-12-08T05:11:06.037Z,10.45
2022-12-08T05:13:33.349Z,13.00
2022-12-08T05:16:11.771Z,10.40
2022-12-08T05:18:39.641Z,10.43
2022-12-08T05:21:07.283Z,11.18
2022-12-08T05:23:34.568Z,12.20
2022-12-08T05:26:01.376Z,10.98
2022-12-08T05:28:44.288Z,16.27
2022-12-08T05:31:12.914Z,13.52
2022-12-08T05:33:40.242Z,12.07
2022-12-08T05:36:08.127Z,12.23
2022-12-08T05:38:35.152Z,13.50
2022-12-08T05:41:02.144Z,11.57
2022-12-08T05:43:29.208Z,11.98
2022-12-08T05:45:56.107Z,12.23
2022-12-08T05:48:23.023Z,13.20
2022-12-08T05:50:50.843Z,12.13
2022-12-08T05:53:19.592Z,12.98
2022-12-08T05:55:47.459Z,14.85
2022-12-08T05:58:17.323Z,13.93
2022-12-08T06:00:45.369Z,13.93
2022-12-08T06:03:13.127Z,12.75
2022-12-08T06:05:41.424Z,12.60
2022-12-08T06:08:09.110Z,12.63
2022-12-08T06:10:37.626Z,13.20
2022-12-08T06:13:04.460Z,13.30
2022-12-08T06:15:31.408Z,11.32
2022-12-08T06:17:58.180Z,12.07
2022-12-08T06:20:25.022Z,12.45
2022-12-08T06:22:51.835Z,12.80
2022-12-08T06:25:18.711Z,12.40
2022-12-08T06:27:45.545Z,12.55
2022-12-08T06:30:12.777Z,11.15
2022-12-08T06:32:39.610Z,12.63
2022-12-08T06:35:06.945Z,13.45
2022-12-08T06:37:33.826Z,12.82
2022-12-08T06:40:00.684Z,11.90
2022-12-08T06:42:46.804Z,12.98
2022-12-08T06:45:15.540Z,13.77
2022-12-08T06:47:42.379Z,12.65
2022-12-08T06:50:10.269Z,14.05
2022-12-08T06:52:45.625Z,11.57
2022-12-08T06:55:35.404Z,13.23
2022-12-08T06:58:03.422Z,14.18
2022-12-08T07:00:30.369Z,13.50
2022-12-08T07:02:57.293Z,13.18
2022-12-08T07:05:24.453Z,13.27
2022-12-08T07:07:51.309Z,13.05
2022-12-08T07:10:18.268Z,13.45
2022-12-08T07:12:45.538Z,12.95
2022-12-08T07:15:12.405Z,13.50
2022-12-08T07:17:39.216Z,14.80
2022-12-08T07:20:07.159Z,12.50
2022-12-08T07:22:34.406Z,14.88
2022-12-08T07:25:01.233Z,14.07
2022-12-08T07:27:28.501Z,14.52
2022-12-08T07:29:55.365Z,13.88
2022-12-08T07:32:22.185Z,16.98
2022-12-08T07:34:49.087Z,12.98
2022-12-08T07:37:15.912Z,13.48
2022-12-08T07:39:43.065Z,13.25
2022-12-08T07:42:10.657Z,12.50
2022-12-08T07:44:37.492Z,13.00
2022-12-08T07:47:04.546Z,13.55
2022-12-08T07:49:31.351Z,12.75
2022-12-08T07:51:58.249Z,12.45
2022-12-08T07:54:25.156Z,14.15
2022-12-08T07:56:51.972Z,12.10
2022-12-08T07:59:19.380Z,12.18
2022-12-08T08:01:56.142Z,12.95
2022-12-08T08:04:33.347Z,14.13
2022-12-08T08:07:00.166Z,13.25
2022-12-08T08:09:27.011Z,12.70
2022-12-08T08:12:22.195Z,11.98
2022-12-08T08:14:40.881Z,12.80
2022-12-08T08:17:07.903Z,14.73
2022-12-08T08:19:34.789Z,11.40
2022-12-08T08:22:01.591Z,12.30
2022-12-08T08:24:28.396Z,13.50
2022-12-08T08:26:55.455Z,13.63
2022-12-08T08:29:22.489Z,11.88
2022-12-08T08:31:49.457Z,11.20
2022-12-08T08:34:16.633Z,12.77
2022-12-08T08:36:43.659Z,12.02
2022-12-08T08:39:10.557Z,11.73
2022-12-08T08:41:37.370Z,11.68
2022-12-08T08:44:04.520Z,11.85
2022-12-08T08:46:32.112Z,11.05
2022-12-08T08:48:59.093Z,11.88
2022-12-08T08:51:25.924Z,12.60
2022-12-08T08:53:52.829Z,10.82
2022-12-08T08:56:19.837Z,11.55
2022-12-08T08:58:48.828Z,10.40
2022-12-08T09:01:22.400Z,10.93
2022-12-08T09:03:49.745Z,12.20
2022-12-08T09:06:17.419Z,10.40
2022-12-08T09:08:45.012Z,9.90
2022-12-08T09:11:11.997Z,11.27
2022-12-08T09:13:39.092Z,10.63
2022-12-08T09:16:08.243Z,11.95
2022-12-08T09:18:35.509Z,13.52
2022-12-08T09:21:13.086Z,12.15
2022-12-08T09:23:40.849Z,11.60
2022-12-08T09:26:07.985Z,12.25
2022-12-08T09:28:35.110Z,11.43
2022-12-08T09:31:02.170Z,11.20
2022-12-08T09:33:29.140Z,10.90
2022-12-08T09:35:56.426Z,10.27
2022-12-08T09:38:23.284Z,8.73
2022-12-08T09:40:53.369Z,9.57
2022-12-08T09:43:56.009Z,9.20
2022-12-08T09:46:23.383Z,9.88
2022-12-08T09:48:57.297Z,11.30
2022-12-08T09:51:27.341Z,10.05
2022-12-08T09:54:00.172Z,9.27
2022-12-08T09:56:32.917Z,10.38
2022-12-08T09:59:23.895Z,9.35
2022-12-08T10:01:51.223Z,11.25
2022-12-08T10:04:29.423Z,9.43
2022-12-08T10:07:30.869Z,10.25
2022-12-08T10:10:08.479Z,9.43
2022-12-08T10:12:47.837Z,11.57
2022-12-08T10:15:17.789Z,9.93
2022-12-08T10:17:50.224Z,10.07
2022-12-08T10:20:24.609Z,10.05
2022-12-08T10:22:59.617Z,11.25
2022-12-08T10:25:35.257Z,12.13
2022-12-08T10:28:02.092Z,11.13
2022-12-08T10:30:28.894Z,10.93
2022-12-08T10:32:55.840Z,15.93
2022-12-08T10:35:25.339Z,11.68
2022-12-08T10:38:02.857Z,11.60
2022-12-08T10:40:40.708Z,11.13
2022-12-08T10:43:18.973Z,12.43
2022-12-08T10:45:45.933Z,11.30
2022-12-08T10:48:24.153Z,11.48
2022-12-08T10:50:58.213Z,12.90
2022-12-08T10:53:28.349Z,11.00
2022-12-08T10:56:03.756Z,11.85
2022-12-08T10:58:40.807Z,11.63
2022-12-08T11:01:32.879Z,10.57
2022-12-08T11:04:06.250Z,10.23
2022-12-08T11:06:38.204Z,12.10
2022-12-08T11:09:22.749Z,12.10
2022-12-08T11:11:53.844Z,11.50
2022-12-08T11:14:32.531Z,13.32
2022-12-08T11:17:09.375Z,13.43
2022-12-08T11:19:42.590Z,15.52
2022-12-08T11:22:32.512Z,15.43
2022-12-08T11:25:00.618Z,15.57
2022-12-08T11:27:27.497Z,12.70
2022-12-08T11:29:54.708Z,13.63
2022-12-08T11:32:22.510Z,12.05
2022-12-08T11:34:55.518Z,13.45
2022-12-08T11:37:35.131Z,13.07
2022-12-08T11:40:07.755Z,12.77
2022-12-08T11:42:48.170Z,15.23
2022-12-08T11:45:24.221Z,13.10
2022-12-08T11:48:06.273Z,16.38
2022-12-08T11:50:40.250Z,15.02
2022-12-08T11:55:50.484Z,11.70
2022-12-08T11:58:22.790Z,12.15
2022-12-08T12:00:50.151Z,14.20
2022-12-08T12:03:49.458Z,12.32
2022-12-08T12:06:53.322Z,13.60
2022-12-08T12:09:39.466Z,10.95
2022-12-08T12:12:24.643Z,11.38
2022-12-08T12:15:25.410Z,12.20
2022-12-08T12:17:57.888Z,11.40
2022-12-08T12:20:48.200Z,14.18
2022-12-08T12:23:40.365Z,10.55
2022-12-08T12:26:16.568Z,11.38
2022-12-08T12:28:53.751Z,15.50
2022-12-08T12:31:28.753Z,11.55
2022-12-08T12:34:06.330Z,11.15
2022-12-08T12:36:46.619Z,11.55
2022-12-08T12:39:15.434Z,12.50
2022-12-08T12:41:45.272Z,11.75
2022-12-08T12:44:15.097Z,11.30
2022-12-08T12:46:50.638Z,12.32
2022-12-08T12:49:40.579Z,14.88
2022-12-08T12:52:10.519Z,15.75
2022-12-08T12:54:43.403Z,17.92
2022-12-08T12:57:10.239Z,15.13
2022-12-08T12:59:42.780Z,16.15
2022-12-08T13:02:24.814Z,13.35
2022-12-08T13:05:02.729Z,13.23
2022-12-08T13:08:01.061Z,13.02
2022-12-08T13:10:31.090Z,10.68
2022-12-08T13:13:09.912Z,11.25
2022-12-08T13:15:36.877Z,14.13
2022-12-08T13:18:04.870Z,12.60
2022-12-08T13:20:40.328Z,12.55
2022-12-08T13:23:26.156Z,12.80
2022-12-08T13:26:09.604Z,13.65
2022-12-08T13:28:59.287Z,12.93
2022-12-08T13:32:01.547Z,13.75
2022-12-08T13:34:37.224Z,13.63
2022-12-08T13:37:13.862Z,14.13
2022-12-08T13:39:40.802Z,13.90
2022-12-08T13:42:23.065Z,12.57
2022-12-08T13:45:21.422Z,11.02
2022-12-08T13:57:09.913Z,11.52
2022-12-08T13:59:44.361Z,13.30
2022-12-08T14:05:17.565Z,10.70
2022-12-08T14:07:35.123Z,10.45
2022-12-08T14:10:03.820Z,8.70
2022-12-08T14:12:31.589Z,10.00
2022-12-08T14:15:15.499Z,8.88
2022-12-08T14:17:54.561Z,9.70
2022-12-08T14:20:58.060Z,10.13
2022-12-08T14:23:22.384Z,7.75
2022-12-08T14:25:49.324Z,7.93
2022-12-08T14:28:17.166Z,8.98
2022-12-08T14:30:44.395Z,9.13
2022-12-08T14:33:17.112Z,9.85
2022-12-08T14:35:50.912Z,11.07
2022-12-08T14:38:19.866Z,7.32
2022-12-08T14:41:01.059Z,7.28
2022-12-08T14:43:29.532Z,6.50
2022-12-08T14:46:02.689Z,7.00
2022-12-08T14:48:36.260Z,7.68
2022-12-08T14:51:20.887Z,12.60
2022-12-08T14:53:53.737Z,8.18
2022-12-08T14:56:26.164Z,6.53
2022-12-08T14:59:24.930Z,7.38
2022-12-08T15:01:54.751Z,6.90
2022-12-08T15:04:27.812Z,6.85
2022-12-08T15:07:00.642Z,7.03
2022-12-08T15:09:36.595Z,7.72
2022-12-08T15:12:26.769Z,7.45
2022-12-08T15:15:09.701Z,7.85
2022-12-08T15:17:44.718Z,7.65
2022-12-08T15:20:38.827Z,7.88
2022-12-08T15:23:06.832Z,7.90
2022-12-08T15:25:35.290Z,8.50
2022-12-08T15:28:03.352Z,11.45
2022-12-08T15:30:31.258Z,8.75
2022-12-08T15:32:58.082Z,8.55
2022-12-08T15:35:25.160Z,8.98
2022-12-08T15:37:52.103Z,9.90
2022-12-08T15:40:22.900Z,10.75
2022-12-08T15:42:49.983Z,9.80
2022-12-08T15:45:17.723Z,13.27
2022-12-08T15:47:45.555Z,11.18
2022-12-08T15:50:17.753Z,11.43
2022-12-08T15:52:44.920Z,12.07
2022-12-08T15:55:16.528Z,10.68
2022-12-08T15:58:51.727Z,12.32
2022-12-08T16:00:54.179Z,11.85
2022-12-08T16:09:12.799Z,11.07
2022-12-08T16:12:08.972Z,10.60
2022-12-08T16:17:24.520Z,11.35
2022-12-08T16:19:51.403Z,13.20
2022-12-08T16:25:20.452Z,8.57
2022-12-08T16:30:36.946Z,10.25
2022-12-08T16:33:03.924Z,9.20
2022-12-08T16:35:31.161Z,9.20
2022-12-08T16:37:58.164Z,10.50
2022-12-08T16:40:25.384Z,8.77
2022-12-08T16:42:52.277Z,8.77
2022-12-08T16:45:24.877Z,10.30
2022-12-08T16:47:55.148Z,9.20
2022-12-08T16:50:23.449Z,11.88
2022-12-08T16:52:56.198Z,10.70
2022-12-08T16:55:23.037Z,11.32
2022-12-08T16:57:49.852Z,12.93
2022-12-08T17:00:22.165Z,12.20
2022-12-08T17:02:50.280Z,12.63
2022-12-08T17:05:19.570Z,17.13
2022-12-08T17:07:48.035Z,13.65
2022-12-08T17:10:18.589Z,15.05
2022-12-08T17:12:46.165Z,13.90
2022-12-08T17:15:15.650Z,16.27
2022-12-08T17:17:43.024Z,16.27
2022-12-08T17:20:14.962Z,14.55
2022-12-08T17:22:43.512Z,16.35
2022-12-08T17:25:10.777Z,14.40
2022-12-08T17:27:38.653Z,16.38
2022-12-08T17:30:11.770Z,16.98
2022-12-08T17:32:39.258Z,14.45
2022-12-08T17:35:07.332Z,15.70
2022-12-08T17:37:34.668Z,14.30
2022-12-08T17:40:01.844Z,13.25
2022-12-08T17:42:28.803Z,14.00
2022-12-08T17:44:56.095Z,10.88
2022-12-08T17:47:22.930Z,9.98
2022-12-08T17:49:49.812Z,10.02
2022-12-08T17:52:16.622Z,9.60
2022-12-08T17:54:43.437Z,9.45
2022-12-08T17:57:10.282Z,11.10
2022-12-08T17:59:37.081Z,11.80
2022-12-08T18:02:04.526Z,11.65
2022-12-08T18:04:32.103Z,11.93
2022-12-08T18:07:01.227Z,11.57
2022-12-08T18:09:31.241Z,12.13
2022-12-08T18:11:58.283Z,12.07
2022-12-08T18:14:25.553Z,12.50
2022-12-08T18:16:52.380Z,13.07
2022-12-08T18:19:19.276Z,16.85
2022-12-08T18:21:46.096Z,15.82
2022-12-08T18:24:21.206Z,14.18
2022-12-08T18:26:49.219Z,14.02
2022-12-08T18:29:16.061Z,14.10
2022-12-08T18:31:43.070Z,12.77
2022-12-08T18:34:09.862Z,11.00
2022-12-08T18:36:36.672Z,14.43
2022-12-08T18:39:10.254Z,12.07
2022-12-08T18:41:37.787Z,14.35
2022-12-08T18:44:04.804Z,14.43
2022-12-08T18:46:31.816Z,13.48
2022-12-08T18:48:59.450Z,14.65
2022-12-08T18:51:26.375Z,13.43
2022-12-08T18:53:53.361Z,13.90
2022-12-08T18:56:26.113Z,12.13
2022-12-08T18:58:58.450Z,13.98
2022-12-08T19:01:28.445Z,12.70
2022-12-08T19:04:26.910Z,11.75
2022-12-08T19:06:44.337Z,13.63
2022-12-08T19:09:12.976Z,15.80
2022-12-08T19:11:41.525Z,15.30
2022-12-08T19:14:09.162Z,13.50
2022-12-08T19:16:36.219Z,14.98
2022-12-08T19:19:04.194Z,15.13
2022-12-08T19:21:31.198Z,14.75
2022-12-08T19:24:00.723Z,13.60
2022-12-08T19:26:28.706Z,14.82
2022-12-08T19:28:55.516Z,14.73
2022-12-08T19:31:22.469Z,13.73
2022-12-08T19:33:49.406Z,16.95
2022-12-08T19:36:19.476Z,17.13
2022-12-08T19:39:05.597Z,14.68
2022-12-08T19:41:51.316Z,17.40
2022-12-08T19:44:34.101Z,16.38
2022-12-08T19:47:01.657Z,16.90
2022-12-08T19:49:28.606Z,16.70
2022-12-08T19:51:56.032Z,14.52
2022-12-08T19:54:23.683Z,12.60
2022-12-08T19:56:50.622Z,15.98
2022-12-08T19:59:18.195Z,15.02
2022-12-08T20:01:45.584Z,13.20
2022-12-08T20:04:14.865Z,12.80
2022-12-08T20:06:42.130Z,15.93
2022-12-08T20:09:10.354Z,13.85
2022-12-08T20:11:38.020Z,14.15
2022-12-08T20:14:05.266Z,13.82
2022-12-08T20:16:33.023Z,15.00
2022-12-08T20:18:59.969Z,13.27
2022-12-08T20:21:26.804Z,12.13
2022-12-08T20:23:54.187Z,13.20
2022-12-08T20:26:22.219Z,11.23
2022-12-08T20:28:49.732Z,14.50
2022-12-08T20:31:25.047Z,12.35
2022-12-08T20:33:52.479Z,16.52
2022-12-08T20:36:20.741Z,12.15
2022-12-08T20:38:49.524Z,14.77
2022-12-08T20:41:18.264Z,14.55
2022-12-08T20:43:46.527Z,15.50
2022-12-08T20:46:16.484Z,13.45
2022-12-08T20:48:44.216Z,15.38
2022-12-08T20:51:19.559Z,12.52
2022-12-08T20:53:47.152Z,11.85
2022-12-08T20:56:20.340Z,12.73
2022-12-08T20:58:47.430Z,13.88
2022-12-08T21:01:17.265Z,13.90
2022-12-08T21:03:45.341Z,14.38
2022-12-08T21:06:12.856Z,13.63
2022-12-08T21:08:40.263Z,15.68
2022-12-08T21:11:08.600Z,13.52
2022-12-08T21:13:37.324Z,14.95
2022-12-08T21:16:05.030Z,13.73
2022-12-08T21:18:39.019Z,16.92
2022-12-08T21:21:14.799Z,13.05
2022-12-08T21:23:42.824Z,15.05
2022-12-08T21:26:21.115Z,12.25
2022-12-08T21:28:48.269Z,13.75
2022-12-08T21:31:18.381Z,15.57
2022-12-08T21:33:45.780Z,13.75
2022-12-08T21:36:15.685Z,12.50
2022-12-08T21:38:43.932Z,12.95
2022-12-08T21:41:14.520Z,12.30
2022-12-08T21:43:42.471Z,10.85
2022-12-08T21:46:17.250Z,11.30
2022-12-08T21:48:44.468Z,10.45
2022-12-08T21:51:11.600Z,12.80
2022-12-08T21:53:38.625Z,12.90
2022-12-08T21:56:09.491Z,14.40
2022-12-08T21:58:36.677Z,15.52
2022-12-08T22:01:08.437Z,14.68
2022-12-08T22:03:36.473Z,13.45
2022-12-08T22:06:12.330Z,12.35
2022-12-08T22:08:39.939Z,11.40
2022-12-08T22:11:08.191Z,10.25
2022-12-08T22:13:36.629Z,9.00
2022-12-08T22:16:06.757Z,10.75
2022-12-08T22:18:35.075Z,7.90
2022-12-08T22:21:02.989Z,9.48
2022-12-08T22:23:30.005Z,10.55
2022-12-08T22:26:01.331Z,7.47
2022-12-08T22:28:30.765Z,8.32
2022-12-08T22:30:57.636Z,10.52
2022-12-08T22:33:24.827Z,11.43
2022-12-08T22:36:03.422Z,8.57
2022-12-08T22:38:33.481Z,11.80
2022-12-08T22:41:00.455Z,9.73
2022-12-08T22:43:28.717Z,12.55
2022-12-08T22:45:55.603Z,9.98
2022-12-08T22:48:22.527Z,11.73
2022-12-08T22:50:49.303Z,10.60
2022-12-08T22:53:16.137Z,11.55
2022-12-08T22:55:46.694Z,11.48
2022-12-08T22:58:14.000Z,10.27
2022-12-08T23:00:41.115Z,9.63
2022-12-08T23:03:08.410Z,14.60
2022-12-08T23:05:36.790Z,9.98
2022-12-08T23:08:05.601Z,10.65
2022-12-08T23:10:33.594Z,12.13
2022-12-08T23:13:03.727Z,14.10
2022-12-08T23:15:31.249Z,12.45
2022-12-08T23:17:58.710Z,11.18
2022-12-08T23:20:25.800Z,10.63
2022-12-08T23:22:52.689Z,12.10
2022-12-08T23:25:19.696Z,11.38
2022-12-08T23:27:47.132Z,12.68
2022-12-08T23:30:15.014Z,11.45
2022-12-08T23:32:42.305Z,10.55
2022-12-08T23:35:09.503Z,11.38
2022-12-08T23:37:36.583Z,11.95
2022-12-08T23:40:04.767Z,9.02
2022-12-08T23:42:32.227Z,10.60
2022-12-08T23:44:59.122Z,12.77
2022-12-08T23:47:26.087Z,8.52
2022-12-08T23:49:52.976Z,11.40
2022-12-08T23:52:19.931Z,8.93
2022-12-08T23:54:49.490Z,10.50
2022-12-08T23:57:16.628Z,8.80
2022-12-08T23:59:43.696Z,8.80
